createdAt,value
2016-02-01T20:39:49.912Z,23.58
2016-02-01T20:40:49.932Z,23.16
2016-02-01T20:41:49.934Z,22.98
2016-02-01T20:42:49.937Z,22.83
2016-02-01T20:43:49.956Z,22.68
2016-02-01T20:44:50.004Z,22.54
2016-02-01T20:45:49.961Z,22.57
2016-02-01T20:46:49.964Z,22.57
2016-02-01T20:47:49.967Z,22.54
2016-02-01T20:48:49.969Z,22.54
2016-02-01T20:49:49.988Z,22.46
2016-02-01T20:50:49.991Z,22.51
2016-02-01T20:51:49.994Z,22.51
2016-02-01T20:52:49.996Z,22.57
2016-02-01T20:53:50.014Z,22.49
2016-02-01T20:54:50.020Z,22.54
2016-02-01T20:55:50.053Z,22.47
2016-02-01T20:56:50.025Z,22.58
2016-02-01T20:57:50.042Z,22.52
2016-02-01T20:58:50.030Z,22.6
2016-02-01T20:59:50.049Z,22.47
2016-02-01T21:01:21.367Z,22.57
2016-02-01T21:01:49.900Z,22.51
2016-02-01T21:02:50.075Z,22.47
2016-02-01T21:03:50.062Z,22.49
2016-02-01T21:04:50.080Z,22.52
2016-02-01T21:05:50.083Z,22.52
2016-02-01T21:06:50.086Z,22.54
2016-02-01T21:07:50.105Z,22.54
2016-02-01T21:08:50.107Z,22.55
2016-02-01T21:09:50.110Z,22.54
2016-02-01T21:10:50.130Z,22.55
2016-02-01T21:11:50.117Z,22.51
2016-02-01T21:12:50.119Z,22.57
2016-02-01T21:13:50.140Z,22.46
2016-02-01T21:14:50.143Z,22.57
2016-02-01T21:15:50.146Z,22.55
2016-02-01T21:16:50.149Z,22.46
2016-02-01T21:17:50.182Z,22.47
2016-02-01T21:18:50.170Z,22.49
2016-02-01T21:19:50.197Z,22.46
2016-02-01T21:20:50.185Z,22.52
2016-02-01T21:21:50.203Z,22.52
2016-02-01T21:22:50.189Z,22.58
2016-02-01T21:23:50.193Z,22.51
2016-02-01T21:24:50.211Z,22.49
2016-02-01T21:25:50.214Z,22.46
2016-02-01T21:26:50.216Z,22.51
2016-02-01T21:27:50.219Z,22.42
2016-02-01T21:28:50.238Z,22.33
2016-02-01T21:29:50.256Z,22.4
2016-02-01T21:35:51.791Z,22.27
2016-02-01T21:36:51.797Z,22.3
2016-02-01T21:37:51.799Z,22.28
2016-02-01T21:38:51.802Z,22.25
2016-02-01T21:39:51.805Z,22.37
2016-02-01T21:40:51.824Z,22.27
2016-02-01T21:41:51.827Z,22.35
2016-02-01T21:42:51.846Z,22.27
2016-02-01T21:43:51.833Z,22.27
2016-02-01T21:44:51.851Z,22.25
2016-02-01T21:45:51.856Z,22.3
2016-02-01T21:46:51.858Z,22.28
2016-02-01T21:47:51.863Z,22.35
2016-02-01T21:48:51.866Z,22.22
2016-02-01T21:49:51.885Z,22.31
2016-02-01T21:50:51.871Z,22.28
2016-02-01T21:51:51.889Z,22.3
2016-02-01T21:52:51.893Z,22.21
2016-02-01T21:53:51.911Z,22.22
2016-02-01T21:54:51.914Z,22.2
2016-02-01T21:55:51.932Z,22.22
2016-02-01T21:56:51.921Z,22.22
2016-02-01T21:57:51.924Z,22.21
2016-02-01T21:58:51.943Z,22.17
2016-02-01T21:59:51.960Z,22.22
2016-02-01T22:06:35.951Z,22.18
2016-02-01T22:07:35.953Z,22.15
2016-02-01T22:08:35.972Z,22.21
2016-02-01T22:09:35.976Z,22.15
2016-02-01T22:10:35.993Z,22.1
2016-02-01T22:11:35.980Z,22.14
2016-02-01T22:12:35.998Z,22.14
2016-02-01T22:13:36.000Z,22.17
2016-02-01T22:14:36.036Z,22.14
2016-02-01T22:15:36.022Z,22.14
2016-02-01T22:16:36.025Z,22.14
2016-02-01T22:17:36.029Z,22.14
2016-02-01T22:18:36.032Z,22.12
2016-02-01T22:19:36.034Z,22.06
2016-02-01T22:20:36.052Z,22.06
2016-02-01T22:21:36.055Z,22.07
2016-02-01T22:22:36.052Z,22.06
2016-02-01T22:23:36.069Z,22.02
2016-02-01T22:24:36.087Z,22.06
2016-02-01T22:25:36.090Z,22.09
2016-02-01T22:26:36.093Z,22.12
2016-02-01T22:27:36.098Z,22.1
2016-02-01T22:28:36.100Z,22.03
2016-02-01T22:29:36.110Z,22
2016-02-01T22:34:55.874Z,22.05
2016-02-01T22:35:14.014Z,22.07
2016-02-01T22:36:14.002Z,22.07
2016-02-01T22:37:14.020Z,22.06
2016-02-01T22:38:14.007Z,22.06
2016-02-01T22:39:14.026Z,22.05
2016-02-01T22:40:14.028Z,22.06
2016-02-01T22:41:14.031Z,22.05
2016-02-01T22:42:14.049Z,22.05
2016-02-01T22:43:14.053Z,21.91
2016-02-01T22:44:14.056Z,21.91
2016-02-01T22:45:14.059Z,21.88
2016-02-01T22:46:14.061Z,21.98
2016-02-01T22:47:14.079Z,21.92
2016-02-01T22:48:14.087Z,21.92
2016-02-01T22:49:14.089Z,21.86
2016-02-01T22:50:14.091Z,21.92
2016-02-01T22:51:14.094Z,21.98
2016-02-01T22:52:14.098Z,21.99
2016-02-01T22:53:14.100Z,21.9
2016-02-01T22:54:14.118Z,21.9
2016-02-01T22:55:14.137Z,21.86
2016-02-01T22:56:14.123Z,21.92
2016-02-01T22:57:14.143Z,21.94
2016-02-01T22:58:14.145Z,21.99
2016-02-01T22:59:14.089Z,21.92
2016-02-01T23:00:14.169Z,21.94
2016-02-01T23:01:14.157Z,21.91
2016-02-01T23:02:14.175Z,21.84
2016-02-01T23:03:14.178Z,21.84
2016-02-01T23:04:14.180Z,21.92
2016-02-01T23:05:14.183Z,21.94
2016-02-01T23:06:14.202Z,21.9
2016-02-01T23:07:14.188Z,21.88
2016-02-01T23:08:14.208Z,21.82
2016-02-01T23:09:14.211Z,21.96
2016-02-01T23:10:14.228Z,21.88
2016-02-01T23:11:14.216Z,21.92
2016-02-01T23:12:14.234Z,21.74
2016-02-01T23:13:14.238Z,21.9
2016-02-01T23:14:14.240Z,21.83
2016-02-01T23:15:14.243Z,21.86
2016-02-01T23:16:14.247Z,21.8
2016-02-01T23:17:14.266Z,21.88
2016-02-01T23:18:14.284Z,21.84
2016-02-01T23:19:14.271Z,21.88
2016-02-01T23:20:14.274Z,21.86
2016-02-01T23:21:14.292Z,21.83
2016-02-01T23:22:14.295Z,21.8
2016-02-01T23:23:14.312Z,21.83
2016-02-01T23:24:14.301Z,21.83
2016-02-01T23:25:14.319Z,21.8
2016-02-01T23:26:14.322Z,21.9
2016-02-01T23:27:14.324Z,21.74
2016-02-01T23:28:14.327Z,21.9
2016-02-01T23:29:14.337Z,21.82
2016-02-01T23:34:15.272Z,21.69
2016-02-01T23:34:27.928Z,21.77
2016-02-01T23:35:27.931Z,21.79
2016-02-01T23:36:27.950Z,21.82
2016-02-01T23:37:27.952Z,21.77
2016-02-01T23:38:27.955Z,21.82
2016-02-01T23:39:27.957Z,21.72
2016-02-01T23:40:27.961Z,21.75
2016-02-01T23:41:27.995Z,21.69
2016-02-01T23:42:27.982Z,21.75
2016-02-01T23:43:28.001Z,21.67
2016-02-01T23:44:27.987Z,21.65
2016-02-01T23:45:28.006Z,21.71
2016-02-01T23:46:28.009Z,21.68
2016-02-01T23:47:28.013Z,21.65
2016-02-01T23:48:28.015Z,21.64
2016-02-01T23:49:28.017Z,21.68
2016-02-01T23:50:28.021Z,21.68
2016-02-01T23:51:28.040Z,21.65
2016-02-01T23:52:28.043Z,21.75
2016-02-01T23:53:28.045Z,21.67
2016-02-01T23:54:28.048Z,21.67
2016-02-01T23:55:28.052Z,21.65
2016-02-01T23:56:28.064Z,21.62
2016-02-01T23:57:28.066Z,21.64
2016-02-01T23:58:28.085Z,21.67
2016-02-01T23:59:28.089Z,21.67
